Fly, Ohio
Current Conditions -  °F | °C
As of 1:53 PM on Thursday 27 Nov 2014 (Local Time) from KPKB Reporting Station
Overcast Overcast  
Wind Chill: 25°   Ceiling: 2100
Heat Index: 34°   Visibility: 10mi
Dew Point: 26°   Wind: 14mph
Humidity: 73%   Direction: 290°WNW
Pressure: 30.19"   Gusts: 20mph
Location:  39.5286°N, 81.1317°W
Report Text: KPKB 271853Z 29012G17KT 10SM BKN021 OVC027 01/M03 A3019 RMK AO2 UPB25E37 SLP229 P0000 T00111033
Loading
Personal Weather Stations






























Interactive Weather Map New forecast layout! Learn more

10-Day Weather Forecast

Advertisements
Track Severe Weather on mobile